createdAt,value
2023-01-11T00:00:23.326Z,10.63
2023-01-11T00:02:55.429Z,8.32
2023-01-11T00:05:22.267Z,13.27
2023-01-11T00:07:49.177Z,12.68
2023-01-11T00:10:15.901Z,8.48
2023-01-11T00:12:42.732Z,12.70
2023-01-11T00:15:10.024Z,10.27
2023-01-11T00:17:36.477Z,8.95
2023-01-11T00:20:03.192Z,8.57
2023-01-11T00:22:29.675Z,4.88
2023-01-11T00:24:56.408Z,4.78
2023-01-11T00:27:22.907Z,5.75
2023-01-11T00:29:52.074Z,6.82
2023-01-11T00:32:18.598Z,7.80
2023-01-11T00:34:45.180Z,11.98
2023-01-11T00:37:11.901Z,3.75
2023-01-11T00:39:38.453Z,5.63
2023-01-11T00:42:23.612Z,5.20
2023-01-11T00:47:54.274Z,6.38
2023-01-11T00:50:20.922Z,5.93
2023-01-11T00:52:47.413Z,8.90
2023-01-11T00:55:14.101Z,3.47
2023-01-11T00:57:40.537Z,5.90
2023-01-11T01:00:07.735Z,4.57
2023-01-11T01:02:34.479Z,6.47
2023-01-11T01:05:01.265Z,3.92
2023-01-11T01:07:27.902Z,5.82
2023-01-11T01:09:54.586Z,5.30
2023-01-11T01:12:40.226Z,5.88
2023-01-11T01:15:07.205Z,7.07
2023-01-11T01:17:33.740Z,4.90
2023-01-11T01:20:00.945Z,5.53
2023-01-11T01:22:27.660Z,6.13
2023-01-11T01:24:54.204Z,6.05
2023-01-11T01:27:20.819Z,8.60
2023-01-11T01:29:47.661Z,7.93
2023-01-11T01:32:14.286Z,4.55
2023-01-11T01:34:40.787Z,5.60
2023-01-11T01:37:08.180Z,5.75
2023-01-11T01:39:34.741Z,5.90
2023-01-11T01:42:01.451Z,3.72
2023-01-11T01:44:46.545Z,6.47
2023-01-11T01:47:13.922Z,7.55
2023-01-11T01:49:40.871Z,8.90
2023-01-11T01:52:08.249Z,5.30
2023-01-11T01:54:37.547Z,6.60
2023-01-11T01:57:10.960Z,6.90
2023-01-11T01:59:37.593Z,4.88
2023-01-11T02:02:04.540Z,7.78
2023-01-11T02:04:37.463Z,10.68
2023-01-11T02:07:14.772Z,6.80
2023-01-11T02:09:41.453Z,6.78
2023-01-11T02:12:08.641Z,6.78
2023-01-11T02:14:37.117Z,6.80
2023-01-11T02:17:06.648Z,10.40
2023-01-11T02:19:33.210Z,6.47
2023-01-11T02:22:18.461Z,4.38
2023-01-11T02:27:30.292Z,8.23
2023-01-11T02:30:09.589Z,4.32
2023-01-11T02:32:57.248Z,6.70
2023-01-11T02:35:35.400Z,7.50
2023-01-11T02:38:04.779Z,7.95
2023-01-11T02:40:37.387Z,4.47
2023-01-11T02:43:27.016Z,6.65
2023-01-11T02:46:09.013Z,9.38
2023-01-11T02:48:52.120Z,7.80
2023-01-11T02:51:18.550Z,7.00
2023-01-11T02:54:08.604Z,7.22
2023-01-11T02:56:38.199Z,10.13
2023-01-11T02:59:05.185Z,8.25
2023-01-11T03:01:31.886Z,5.50
2023-01-11T03:03:59.127Z,4.80
2023-01-11T03:06:43.684Z,4.53
2023-01-11T03:09:18.753Z,4.03
2023-01-11T03:14:48.824Z,6.68
2023-01-11T03:17:50.925Z,5.88
2023-01-11T03:20:17.639Z,11.85
2023-01-11T03:22:59.748Z,15.27
2023-01-11T03:25:46.617Z,15.07
2023-01-11T03:28:29.515Z,11.07
2023-01-11T03:31:31.447Z,15.27
2023-01-11T03:33:58.272Z,20.70
2023-01-11T03:36:24.685Z,23.38
2023-01-11T03:38:54.231Z,17.55
2023-01-11T03:41:24.524Z,20.38
2023-01-11T03:43:52.663Z,24.42
2023-01-11T03:46:24.367Z,24.77
2023-01-11T03:49:01.277Z,28.27
2023-01-11T03:51:30.567Z,19.83
2023-01-11T03:53:58.855Z,26.83
2023-01-11T03:56:30.304Z,36.38
2023-01-11T03:58:56.960Z,30.05
2023-01-11T04:01:24.529Z,27.15
2023-01-11T04:03:51.395Z,26.05
2023-01-11T04:06:18.580Z,34.17
2023-01-11T04:08:45.113Z,31.05
2023-01-11T04:11:11.594Z,38.60
2023-01-11T04:13:38.523Z,37.33
2023-01-11T04:16:05.157Z,33.60
2023-01-11T04:18:31.931Z,25.98
2023-01-11T04:20:59.461Z,37.00
2023-01-11T04:23:26.324Z,38.97
2023-01-11T04:25:53.394Z,38.80
2023-01-11T04:28:20.116Z,43.25
2023-01-11T04:30:46.708Z,37.58
2023-01-11T04:33:14.547Z,33.05
2023-01-11T04:35:41.981Z,35.30
2023-01-11T04:38:08.614Z,35.03
2023-01-11T04:40:35.171Z,36.92
2023-01-11T04:43:02.456Z,41.20
2023-01-11T04:45:30.220Z,40.92
2023-01-11T04:47:57.896Z,43.80
2023-01-11T04:50:24.643Z,32.35
2023-01-11T04:52:51.865Z,34.75
2023-01-11T04:55:18.524Z,42.95
2023-01-11T04:57:45.556Z,34.60
2023-01-11T05:00:12.594Z,37.10
2023-01-11T05:02:39.695Z,32.63
2023-01-11T05:05:06.865Z,39.83
2023-01-11T05:07:33.825Z,35.38
2023-01-11T05:10:00.544Z,30.27
2023-01-11T05:12:27.175Z,28.80
2023-01-11T05:14:53.674Z,24.88
2023-01-11T05:17:20.422Z,37.08
2023-01-11T05:19:46.998Z,27.45
2023-01-11T05:22:13.565Z,26.35
2023-01-11T05:24:40.159Z,25.50
2023-01-11T05:27:06.872Z,24.00
2023-01-11T05:29:33.366Z,26.35
2023-01-11T05:32:00.229Z,24.20
2023-01-11T05:34:27.022Z,28.75
2023-01-11T05:36:54.003Z,21.58
2023-01-11T05:39:23.026Z,20.88
2023-01-11T05:41:49.951Z,19.95
2023-01-11T05:44:36.804Z,14.98
2023-01-11T05:47:04.423Z,19.23
2023-01-11T05:49:31.218Z,19.45
2023-01-11T05:51:58.056Z,20.00
2023-01-11T05:54:24.601Z,18.27
2023-01-11T05:56:51.379Z,12.57
2023-01-11T05:59:17.874Z,19.08
2023-01-11T06:01:44.618Z,15.15
2023-01-11T06:04:11.257Z,19.00
2023-01-11T06:06:38.034Z,21.13
2023-01-11T06:09:04.583Z,18.92
2023-01-11T06:11:31.510Z,21.25
2023-01-11T06:13:58.209Z,25.40
2023-01-11T06:16:25.171Z,16.13
2023-01-11T06:18:52.779Z,17.20
2023-01-11T06:21:20.369Z,21.85
2023-01-11T06:23:48.600Z,14.98
2023-01-11T06:26:16.741Z,20.00
2023-01-11T06:28:43.942Z,22.67
2023-01-11T06:31:10.683Z,28.98
2023-01-11T06:33:37.311Z,17.70
2023-01-11T06:36:05.342Z,16.85
2023-01-11T06:38:31.960Z,18.33
2023-01-11T06:41:00.595Z,16.75
2023-01-11T06:43:28.458Z,20.58
2023-01-11T06:45:55.463Z,24.58
2023-01-11T06:48:22.724Z,16.85
2023-01-11T06:50:49.793Z,19.58
2023-01-11T06:53:16.548Z,24.55
2023-01-11T06:55:43.652Z,15.95
2023-01-11T06:58:10.767Z,17.65
2023-01-11T07:00:38.538Z,15.38
2023-01-11T07:03:06.100Z,16.42
2023-01-11T07:05:33.760Z,16.88
2023-01-11T07:08:00.540Z,18.73
2023-01-11T07:10:27.621Z,14.70
2023-01-11T07:12:54.698Z,14.50
2023-01-11T07:15:21.540Z,22.13
2023-01-11T07:17:54.220Z,18.88
2023-01-11T07:20:21.444Z,13.75
2023-01-11T07:22:48.146Z,19.95
2023-01-11T07:25:14.920Z,18.58
2023-01-11T07:27:41.469Z,18.63
2023-01-11T07:30:09.874Z,14.73
2023-01-11T07:32:36.635Z,17.58
2023-01-11T07:35:03.543Z,18.00
2023-01-11T07:37:32.741Z,16.80
2023-01-11T07:39:59.408Z,22.35
2023-01-11T07:42:45.003Z,15.43
2023-01-11T07:45:11.623Z,18.77
2023-01-11T07:47:38.235Z,16.05
2023-01-11T07:50:05.346Z,19.55
2023-01-11T07:52:32.134Z,21.70
2023-01-11T07:55:02.825Z,20.05
2023-01-11T07:57:34.657Z,17.38
2023-01-11T08:00:01.467Z,17.48
2023-01-11T08:02:38.683Z,22.33
2023-01-11T08:05:05.657Z,19.65
2023-01-11T08:07:32.457Z,18.88
2023-01-11T08:09:59.270Z,16.88
2023-01-11T08:12:44.515Z,27.20
2023-01-11T08:15:14.160Z,13.32
2023-01-11T08:17:40.952Z,16.58
2023-01-11T08:20:07.858Z,19.48
2023-01-11T08:22:34.743Z,17.27
2023-01-11T08:25:01.382Z,25.83
2023-01-11T08:27:28.096Z,15.23
2023-01-11T08:29:54.891Z,15.35
2023-01-11T08:32:27.630Z,24.85
2023-01-11T08:34:54.346Z,21.05
2023-01-11T08:37:23.892Z,16.85
2023-01-11T08:39:51.612Z,20.00
2023-01-11T08:42:18.287Z,19.92
2023-01-11T08:44:45.205Z,24.35
2023-01-11T08:47:11.948Z,16.70
2023-01-11T08:49:38.636Z,20.85
2023-01-11T08:52:05.410Z,24.02
2023-01-11T08:54:32.083Z,22.40
2023-01-11T08:56:58.654Z,16.35
2023-01-11T08:59:25.380Z,18.38
2023-01-11T09:01:52.161Z,22.83
2023-01-11T09:04:25.181Z,23.15
2023-01-11T09:06:53.091Z,19.17
2023-01-11T09:09:19.812Z,19.50
2023-01-11T09:11:55.514Z,21.65
2023-01-11T09:14:22.921Z,21.10
2023-01-11T09:16:49.489Z,27.58
2023-01-11T09:19:16.177Z,19.02
2023-01-11T09:21:43.371Z,21.63
2023-01-11T09:24:11.323Z,22.40
2023-01-11T09:26:38.650Z,23.08
2023-01-11T09:29:05.676Z,17.58
2023-01-11T09:31:32.266Z,22.92
2023-01-11T09:33:58.982Z,19.85
2023-01-11T09:36:27.811Z,24.15
2023-01-11T09:38:57.650Z,20.63
2023-01-11T09:41:27.530Z,19.70
2023-01-11T09:44:06.596Z,24.65
2023-01-11T09:46:33.809Z,24.00
2023-01-11T09:49:00.624Z,26.52
2023-01-11T09:51:31.306Z,26.00
2023-01-11T09:53:59.922Z,21.38
2023-01-11T09:56:31.421Z,19.95
2023-01-11T09:59:07.751Z,19.05
2023-01-11T10:01:45.583Z,13.98
2023-01-11T10:04:33.238Z,13.50
2023-01-11T10:07:15.595Z,27.40
2023-01-11T10:18:44.445Z,18.40
2023-01-11T10:19:18.848Z,19.60
2023-01-11T10:21:42.066Z,22.20
2023-01-11T10:24:17.682Z,30.10
2023-01-11T10:26:44.740Z,26.98
2023-01-11T10:29:31.495Z,22.35
2023-01-11T10:32:03.254Z,17.13
2023-01-11T10:35:10.345Z,21.70
2023-01-11T10:37:54.668Z,20.02
2023-01-11T10:40:37.808Z,23.95
2023-01-11T10:43:17.026Z,18.27
2023-01-11T10:45:52.138Z,16.55
2023-01-11T10:48:27.091Z,22.33
2023-01-11T10:53:25.211Z,19.67
2023-01-11T10:56:11.150Z,15.80
2023-01-11T10:58:46.845Z,23.70
2023-01-11T11:01:46.831Z,19.45
2023-01-11T11:04:26.160Z,17.95
2023-01-11T11:07:01.464Z,23.73
2023-01-11T11:09:37.480Z,23.40
2023-01-11T11:12:08.582Z,27.00
2023-01-11T11:14:58.238Z,27.65
2023-01-11T11:17:28.112Z,19.55
2023-01-11T11:19:54.921Z,19.45
2023-01-11T11:22:21.839Z,20.40
2023-01-11T11:24:48.702Z,25.95
2023-01-11T11:27:38.130Z,20.70
2023-01-11T11:30:05.159Z,23.05
2023-01-11T11:32:36.994Z,18.10
2023-01-11T11:35:04.232Z,18.50
2023-01-11T11:37:35.884Z,17.38
2023-01-11T11:40:02.941Z,23.70
2023-01-11T11:42:29.782Z,21.92
2023-01-11T11:45:05.534Z,20.58
2023-01-11T11:47:32.187Z,21.60
2023-01-11T11:50:42.375Z,25.65
2023-01-11T11:53:08.312Z,25.90
2023-01-11T11:55:35.540Z,22.25
2023-01-11T11:58:08.557Z,23.05
2023-01-11T12:00:40.180Z,18.88
2023-01-11T12:03:30.067Z,23.95
2023-01-11T12:06:03.753Z,17.17
2023-01-11T12:08:31.638Z,20.17
2023-01-11T12:11:06.170Z,28.35
2023-01-11T12:13:37.285Z,22.17
2023-01-11T12:16:06.082Z,22.27
2023-01-11T12:18:38.951Z,22.08
2023-01-11T12:21:09.696Z,21.73
2023-01-11T12:23:36.302Z,27.73
2023-01-11T12:26:04.347Z,22.42
2023-01-11T12:28:36.876Z,15.65
2023-01-11T12:31:15.799Z,22.60
2023-01-11T12:33:44.472Z,21.42
2023-01-11T12:36:19.328Z,21.63
2023-01-11T12:39:05.186Z,19.25
2023-01-11T12:41:44.323Z,18.52
2023-01-11T12:44:14.981Z,19.02
2023-01-11T12:46:54.075Z,20.77
2023-01-11T12:49:21.311Z,14.93
2023-01-11T12:52:06.944Z,16.70
2023-01-11T12:54:40.062Z,23.15
2023-01-11T12:57:22.196Z,21.08
2023-01-11T12:59:54.814Z,17.40
2023-01-11T13:02:37.113Z,21.77
2023-01-11T13:05:12.701Z,13.07
2023-01-11T13:07:47.891Z,17.92
2023-01-11T13:10:30.231Z,21.75
2023-01-11T13:13:06.009Z,20.02
2023-01-11T13:15:42.240Z,22.30
2023-01-11T13:18:31.717Z,23.05
2023-01-11T13:21:08.191Z,21.00
2023-01-11T13:23:44.337Z,25.52
2023-01-11T13:26:21.909Z,21.17
2023-01-11T13:28:57.891Z,22.20
2023-01-11T13:31:25.220Z,17.48
2023-01-11T13:33:55.169Z,19.00
2023-01-11T13:36:24.433Z,19.15
2023-01-11T13:39:09.635Z,18.17
2023-01-11T13:44:10.889Z,17.88
2023-01-11T13:49:42.908Z,18.08
2023-01-11T13:52:14.654Z,15.68
2023-01-11T13:54:56.705Z,13.40
2023-01-11T13:57:27.443Z,12.43
2023-01-11T13:59:57.578Z,25.00
2023-01-11T14:02:24.251Z,15.68
2023-01-11T14:05:19.917Z,19.92
2023-01-11T14:08:04.983Z,18.67
2023-01-11T14:10:50.098Z,15.05
2023-01-11T14:16:07.459Z,13.40
2023-01-11T14:18:47.982Z,13.10
2023-01-11T14:21:21.307Z,18.58
2023-01-11T14:23:50.054Z,15.13
2023-01-11T14:26:42.217Z,14.95
2023-01-11T14:29:44.051Z,14.63
2023-01-11T14:32:22.655Z,13.88
2023-01-11T14:34:57.071Z,11.68
2023-01-11T14:37:24.275Z,18.13
2023-01-11T14:40:14.171Z,16.85
2023-01-11T14:43:00.285Z,11.88
2023-01-11T14:45:31.487Z,14.98
2023-01-11T14:47:58.888Z,26.38
2023-01-11T14:50:31.103Z,21.10
2023-01-11T14:52:59.030Z,21.25
2023-01-11T14:55:27.937Z,14.25
2023-01-11T14:58:02.924Z,14.30
2023-01-11T15:00:29.536Z,17.67
2023-01-11T15:03:02.464Z,15.57
2023-01-11T15:05:34.282Z,18.50
2023-01-11T15:08:13.198Z,16.95
2023-01-11T15:10:55.162Z,19.70
2023-01-11T15:13:24.157Z,15.75
2023-01-11T15:16:10.296Z,16.67
2023-01-11T15:18:42.859Z,17.27
2023-01-11T15:21:13.954Z,14.75
2023-01-11T15:23:48.732Z,16.80
2023-01-11T15:26:16.969Z,17.92
2023-01-11T15:28:44.250Z,16.27
2023-01-11T15:31:30.846Z,20.67
2023-01-11T15:34:05.499Z,14.00
2023-01-11T15:36:52.310Z,18.27
2023-01-11T15:39:23.239Z,14.82
2023-01-11T15:42:04.977Z,14.55
2023-01-11T15:44:37.567Z,13.43
2023-01-11T15:47:16.924Z,15.98
2023-01-11T15:50:02.265Z,15.38
2023-01-11T15:54:58.779Z,12.70
2023-01-11T15:57:34.167Z,12.93
2023-01-11T16:00:21.636Z,15.98
2023-01-11T16:02:57.411Z,13.80
2023-01-11T16:05:25.357Z,11.93
2023-01-11T16:07:54.808Z,17.90
2023-01-11T16:10:31.000Z,13.07
2023-01-11T16:13:07.384Z,14.43
2023-01-11T16:15:48.659Z,13.45
2023-01-11T16:18:24.631Z,13.52
2023-01-11T16:21:05.783Z,17.27
2023-01-11T16:23:33.807Z,14.25
2023-01-11T16:26:01.462Z,14.00
2023-01-11T16:28:28.563Z,13.85
2023-01-11T16:31:00.139Z,16.13
2023-01-11T16:33:28.166Z,12.68
2023-01-11T16:36:11.658Z,18.80
2023-01-11T16:38:43.873Z,15.02
2023-01-11T16:41:13.164Z,15.70
2023-01-11T16:43:42.152Z,18.42
2023-01-11T16:46:16.492Z,18.92
2023-01-11T16:48:43.492Z,20.95
2023-01-11T16:51:14.318Z,19.20
2023-01-11T16:53:42.435Z,17.83
2023-01-11T16:56:15.222Z,15.80
2023-01-11T16:58:41.848Z,18.85
2023-01-11T17:01:09.874Z,13.88
2023-01-11T17:03:36.680Z,24.08
2023-01-11T17:06:15.416Z,18.33
2023-01-11T17:08:43.400Z,14.27
2023-01-11T17:11:16.061Z,12.40
2023-01-11T17:13:54.679Z,15.90
2023-01-11T17:16:24.349Z,16.65
2023-01-11T17:18:51.418Z,17.17
2023-01-11T17:21:18.093Z,14.45
2023-01-11T17:23:45.158Z,15.68
2023-01-11T17:26:16.576Z,17.48
2023-01-11T17:28:47.785Z,16.92
2023-01-11T17:31:22.978Z,18.30
2023-01-11T17:33:59.021Z,15.35
2023-01-11T17:36:25.927Z,14.38
2023-01-11T17:38:54.353Z,16.17
2023-01-11T17:41:41.417Z,17.00
2023-01-11T17:44:32.173Z,11.80
2023-01-11T17:46:58.845Z,13.45
2023-01-11T17:49:25.805Z,13.40
2023-01-11T17:51:52.608Z,26.08
2023-01-11T17:54:20.864Z,15.70
2023-01-11T17:57:00.902Z,18.17
2023-01-11T17:59:33.106Z,15.90
2023-01-11T18:02:13.257Z,19.85
2023-01-11T18:04:40.331Z,16.38
2023-01-11T18:07:08.790Z,18.85
2023-01-11T18:09:45.965Z,17.65
2023-01-11T18:12:31.721Z,20.30
2023-01-11T18:15:00.087Z,21.88
2023-01-11T18:17:35.078Z,23.23
2023-01-11T18:20:04.080Z,20.98
2023-01-11T18:22:40.581Z,17.98
2023-01-11T18:25:18.204Z,19.13
2023-01-11T18:27:46.656Z,20.90
2023-01-11T18:30:31.655Z,17.67
2023-01-11T18:32:59.429Z,14.40
2023-01-11T18:35:26.000Z,18.80
2023-01-11T18:37:52.799Z,26.63
2023-01-11T18:40:19.598Z,23.70
2023-01-11T18:42:47.442Z,21.35
2023-01-11T18:45:14.707Z,21.10
2023-01-11T18:47:41.562Z,19.83
2023-01-11T18:50:12.476Z,19.55
2023-01-11T18:52:39.377Z,27.20
2023-01-11T18:55:06.748Z,28.65
2023-01-11T18:57:33.369Z,22.00
2023-01-11T19:00:00.162Z,27.30
2023-01-11T19:02:29.235Z,23.67
2023-01-11T19:04:57.076Z,29.15
2023-01-11T19:07:25.363Z,24.80
2023-01-11T19:09:55.066Z,21.15
2023-01-11T19:12:23.719Z,23.10
2023-01-11T19:14:50.942Z,17.50
2023-01-11T19:17:17.991Z,20.10
2023-01-11T19:19:44.708Z,20.52
2023-01-11T19:22:11.775Z,20.85
2023-01-11T19:24:39.668Z,19.08
2023-01-11T19:27:06.426Z,21.73
2023-01-11T19:29:33.640Z,22.48
2023-01-11T19:32:00.279Z,26.73
2023-01-11T19:34:26.851Z,19.77
2023-01-11T19:36:53.915Z,17.35
2023-01-11T19:39:20.609Z,19.13
2023-01-11T19:42:02.120Z,17.65
2023-01-11T19:44:32.890Z,15.27
2023-01-11T19:47:11.478Z,20.42
2023-01-11T19:49:42.399Z,15.88
2023-01-11T19:52:13.585Z,15.10
2023-01-11T19:54:43.167Z,19.73
2023-01-11T19:57:14.562Z,17.42
2023-01-11T19:59:41.766Z,20.13
2023-01-11T20:02:10.051Z,23.05
2023-01-11T20:04:37.383Z,15.85
2023-01-11T20:07:04.304Z,17.85
2023-01-11T20:09:31.113Z,16.20
2023-01-11T20:11:59.222Z,18.27
2023-01-11T20:14:26.021Z,18.90
2023-01-11T20:16:53.220Z,22.95
2023-01-11T20:19:19.949Z,21.95
2023-01-11T20:21:49.109Z,22.33
2023-01-11T20:24:15.851Z,20.90
2023-01-11T20:26:42.548Z,18.58
2023-01-11T20:53:25.097Z,12.68
2023-01-11T20:56:12.534Z,10.02
2023-01-11T21:08:00.962Z,6.38
2023-01-11T21:13:40.204Z,8.68
2023-01-11T21:16:28.653Z,13.18
2023-01-11T21:22:27.464Z,5.50
2023-01-11T21:24:54.788Z,12.13
2023-01-11T21:27:32.752Z,12.20
2023-01-11T22:31:48.108Z,14.23
2023-01-11T22:34:41.125Z,14.73
2023-01-11T22:37:07.779Z,14.13
2023-01-11T22:39:34.423Z,16.90
2023-01-11T22:42:01.099Z,15.63
2023-01-11T22:44:30.503Z,22.10
2023-01-11T22:46:57.145Z,20.20
2023-01-11T22:49:23.662Z,19.75
2023-01-11T22:51:50.378Z,24.95
2023-01-11T22:54:17.102Z,25.90
2023-01-11T22:56:43.907Z,23.45
2023-01-11T22:59:10.985Z,27.02
2023-01-11T23:01:41.426Z,31.60
2023-01-11T23:04:09.109Z,35.17
2023-01-11T23:06:39.956Z,46.03
2023-01-11T23:09:07.997Z,36.72
2023-01-11T23:11:55.484Z,31.52
2023-01-11T23:14:22.545Z,32.00
2023-01-11T23:16:49.949Z,37.97
2023-01-11T23:19:17.842Z,42.03
2023-01-11T23:21:44.993Z,39.67
2023-01-11T23:24:12.545Z,41.95
2023-01-11T23:26:39.324Z,33.15
2023-01-11T23:29:12.167Z,40.13
2023-01-11T23:31:42.445Z,25.40
2023-01-11T23:34:14.671Z,28.20
2023-01-11T23:36:42.252Z,32.67
2023-01-11T23:39:12.957Z,33.53
2023-01-11T23:41:58.333Z,34.05
2023-01-11T23:47:10.537Z,31.33
2023-01-11T23:49:39.924Z,29.23
2023-01-11T23:52:06.866Z,32.40
2023-01-11T23:54:34.269Z,38.97
2023-01-11T23:57:01.623Z,34.33
2023-01-11T23:59:28.656Z,33.60
